sensor_id;sensor_type;location;lat;lon;timestamp;P1;durP1;ratioP1;P2;durP2;ratioP2
21122;SDS011;10719;48.130;11.630;2024-01-06T00:00:35;16.05;;;5.40;;
21122;SDS011;10719;48.130;11.630;2024-01-06T00:03:00;14.68;;;6.10;;
21122;SDS011;10719;48.130;11.630;2024-01-06T00:05:26;14.50;;;5.53;;
21122;SDS011;10719;48.130;11.630;2024-01-06T00:07:52;17.33;;;6.90;;
21122;SDS011;10719;48.130;11.630;2024-01-06T00:10:17;14.32;;;6.18;;
21122;SDS011;10719;48.130;11.630;2024-01-06T00:12:43;13.90;;;5.90;;
21122;SDS011;10719;48.130;11.630;2024-01-06T00:15:09;15.77;;;6.97;;
21122;SDS011;10719;48.130;11.630;2024-01-06T00:17:38;16.50;;;6.60;;
21122;SDS011;10719;48.130;11.630;2024-01-06T00:20:03;14.73;;;5.60;;
21122;SDS011;10719;48.130;11.630;2024-01-06T00:22:30;15.85;;;6.88;;
21122;SDS011;10719;48.130;11.630;2024-01-06T00:24:55;14.98;;;6.30;;
21122;SDS011;10719;48.130;11.630;2024-01-06T00:27:21;16.55;;;5.70;;
21122;SDS011;10719;48.130;11.630;2024-01-06T00:29:47;13.70;;;5.60;;
21122;SDS011;10719;48.130;11.630;2024-01-06T00:32:12;17.70;;;6.38;;
21122;SDS011;10719;48.130;11.630;2024-01-06T00:34:38;13.82;;;6.00;;
21122;SDS011;10719;48.130;11.630;2024-01-06T00:37:03;14.63;;;6.45;;
21122;SDS011;10719;48.130;11.630;2024-01-06T00:39:29;15.48;;;5.50;;
21122;SDS011;10719;48.130;11.630;2024-01-06T00:41:54;13.10;;;5.95;;
21122;SDS011;10719;48.130;11.630;2024-01-06T00:44:20;12.52;;;5.10;;
21122;SDS011;10719;48.130;11.630;2024-01-06T00:46:46;13.43;;;4.97;;
21122;SDS011;10719;48.130;11.630;2024-01-06T00:49:11;12.35;;;4.15;;
21122;SDS011;10719;48.130;11.630;2024-01-06T00:51:37;12.23;;;4.15;;
21122;SDS011;10719;48.130;11.630;2024-01-06T00:54:02;11.35;;;3.92;;
21122;SDS011;10719;48.130;11.630;2024-01-06T00:56:28;11.85;;;4.25;;
21122;SDS011;10719;48.130;11.630;2024-01-06T00:58:54;10.82;;;4.18;;
21122;SDS011;10719;48.130;11.630;2024-01-06T01:01:19;11.57;;;4.30;;
21122;SDS011;10719;48.130;11.630;2024-01-06T01:03:46;11.98;;;4.60;;
21122;SDS011;10719;48.130;11.630;2024-01-06T01:06:11;14.38;;;4.97;;
21122;SDS011;10719;48.130;11.630;2024-01-06T01:08:37;14.75;;;4.90;;
21122;SDS011;10719;48.130;11.630;2024-01-06T01:11:03;15.55;;;6.47;;
21122;SDS011;10719;48.130;11.630;2024-01-06T01:13:28;14.93;;;6.65;;
21122;SDS011;10719;48.130;11.630;2024-01-06T01:15:54;14.27;;;5.38;;
21122;SDS011;10719;48.130;11.630;2024-01-06T01:18:20;14.35;;;6.05;;
21122;SDS011;10719;48.130;11.630;2024-01-06T01:20:45;14.30;;;5.97;;
21122;SDS011;10719;48.130;11.630;2024-01-06T01:23:11;11.80;;;5.13;;
21122;SDS011;10719;48.130;11.630;2024-01-06T01:25:37;13.23;;;5.18;;
21122;SDS011;10719;48.130;11.630;2024-01-06T01:28:03;13.88;;;5.13;;
21122;SDS011;10719;48.130;11.630;2024-01-06T01:30:29;13.32;;;4.80;;
21122;SDS011;10719;48.130;11.630;2024-01-06T01:32:55;11.77;;;4.80;;
21122;SDS011;10719;48.130;11.630;2024-01-06T01:35:21;13.20;;;4.47;;
21122;SDS011;10719;48.130;11.630;2024-01-06T01:37:46;11.88;;;4.05;;
21122;SDS011;10719;48.130;11.630;2024-01-06T01:40:12;10.90;;;3.97;;
21122;SDS011;10719;48.130;11.630;2024-01-06T01:42:37;11.35;;;4.35;;
21122;SDS011;10719;48.130;11.630;2024-01-06T01:45:04;11.02;;;4.18;;
21122;SDS011;10719;48.130;11.630;2024-01-06T01:47:30;7.32;;;2.83;;
21122;SDS011;10719;48.130;11.630;2024-01-06T01:49:55;3.95;;;1.80;;
21122;SDS011;10719;48.130;11.630;2024-01-06T01:52:22;5.32;;;1.70;;
21122;SDS011;10719;48.130;11.630;2024-01-06T01:54:47;6.15;;;1.92;;
21122;SDS011;10719;48.130;11.630;2024-01-06T01:57:14;4.00;;;1.65;;
21122;SDS011;10719;48.130;11.630;2024-01-06T01:59:41;4.25;;;1.63;;
21122;SDS011;10719;48.130;11.630;2024-01-06T02:02:07;3.42;;;1.50;;
21122;SDS011;10719;48.130;11.630;2024-01-06T02:04:33;5.68;;;1.67;;
21122;SDS011;10719;48.130;11.630;2024-01-06T02:07:00;4.43;;;1.50;;
21122;SDS011;10719;48.130;11.630;2024-01-06T02:09:25;4.80;;;1.45;;
21122;SDS011;10719;48.130;11.630;2024-01-06T02:11:54;4.82;;;1.45;;
21122;SDS011;10719;48.130;11.630;2024-01-06T02:14:21;3.88;;;1.40;;
21122;SDS011;10719;48.130;11.630;2024-01-06T02:16:47;4.30;;;1.80;;
21122;SDS011;10719;48.130;11.630;2024-01-06T02:19:12;6.00;;;2.00;;
21122;SDS011;10719;48.130;11.630;2024-01-06T02:21:40;5.55;;;1.70;;
21122;SDS011;10719;48.130;11.630;2024-01-06T02:24:09;4.40;;;1.70;;
21122;SDS011;10719;48.130;11.630;2024-01-06T02:26:35;4.35;;;1.95;;
21122;SDS011;10719;48.130;11.630;2024-01-06T02:29:00;4.40;;;1.50;;
21122;SDS011;10719;48.130;11.630;2024-01-06T02:31:26;6.00;;;2.40;;
21122;SDS011;10719;48.130;11.630;2024-01-06T02:33:52;8.43;;;2.35;;
21122;SDS011;10719;48.130;11.630;2024-01-06T02:36:18;5.10;;;2.08;;
21122;SDS011;10719;48.130;11.630;2024-01-06T02:38:44;10.75;;;2.47;;
21122;SDS011;10719;48.130;11.630;2024-01-06T02:41:09;5.15;;;1.98;;
21122;SDS011;10719;48.130;11.630;2024-01-06T02:43:35;10.03;;;3.10;;
21122;SDS011;10719;48.130;11.630;2024-01-06T02:46:01;9.90;;;2.50;;
21122;SDS011;10719;48.130;11.630;2024-01-06T02:48:26;6.10;;;2.25;;
21122;SDS011;10719;48.130;11.630;2024-01-06T02:50:54;7.00;;;2.30;;
21122;SDS011;10719;48.130;11.630;2024-01-06T02:53:20;5.60;;;2.10;;
21122;SDS011;10719;48.130;11.630;2024-01-06T02:55:46;7.47;;;2.40;;
21122;SDS011;10719;48.130;11.630;2024-01-06T02:58:11;8.27;;;2.70;;
21122;SDS011;10719;48.130;11.630;2024-01-06T03:00:37;4.90;;;1.83;;
21122;SDS011;10719;48.130;11.630;2024-01-06T03:03:02;4.82;;;1.52;;
21122;SDS011;10719;48.130;11.630;2024-01-06T03:05:28;4.65;;;1.50;;
21122;SDS011;10719;48.130;11.630;2024-01-06T03:07:54;5.15;;;1.77;;
21122;SDS011;10719;48.130;11.630;2024-01-06T03:10:19;3.95;;;1.58;;
21122;SDS011;10719;48.130;11.630;2024-01-06T03:12:45;7.28;;;2.80;;
21122;SDS011;10719;48.130;11.630;2024-01-06T03:15:11;5.05;;;2.15;;
21122;SDS011;10719;48.130;11.630;2024-01-06T03:17:36;7.32;;;2.72;;
21122;SDS011;10719;48.130;11.630;2024-01-06T03:20:02;8.75;;;2.55;;
21122;SDS011;10719;48.130;11.630;2024-01-06T03:22:29;6.80;;;2.58;;
21122;SDS011;10719;48.130;11.630;2024-01-06T03:24:54;6.05;;;2.28;;
21122;SDS011;10719;48.130;11.630;2024-01-06T03:27:20;6.07;;;2.42;;
21122;SDS011;10719;48.130;11.630;2024-01-06T03:29:46;5.43;;;2.20;;
21122;SDS011;10719;48.130;11.630;2024-01-06T03:32:12;8.35;;;2.55;;
21122;SDS011;10719;48.130;11.630;2024-01-06T03:34:37;7.00;;;2.63;;
21122;SDS011;10719;48.130;11.630;2024-01-06T03:37:05;9.77;;;2.33;;
21122;SDS011;10719;48.130;11.630;2024-01-06T03:39:31;4.55;;;1.90;;
21122;SDS011;10719;48.130;11.630;2024-01-06T03:41:56;8.23;;;2.13;;
21122;SDS011;10719;48.130;11.630;2024-01-06T03:44:22;6.10;;;1.73;;
21122;SDS011;10719;48.130;11.630;2024-01-06T03:46:47;3.90;;;1.70;;
21122;SDS011;10719;48.130;11.630;2024-01-06T03:49:13;5.93;;;1.98;;
21122;SDS011;10719;48.130;11.630;2024-01-06T03:51:39;5.15;;;2.08;;
21122;SDS011;10719;48.130;11.630;2024-01-06T03:54:05;6.00;;;2.33;;
21122;SDS011;10719;48.130;11.630;2024-01-06T03:56:30;8.82;;;2.70;;
21122;SDS011;10719;48.130;11.630;2024-01-06T03:58:56;9.30;;;2.55;;
21122;SDS011;10719;48.130;11.630;2024-01-06T04:01:22;3.88;;;1.80;;
21122;SDS011;10719;48.130;11.630;2024-01-06T04:03:48;5.38;;;2.17;;
21122;SDS011;10719;48.130;11.630;2024-01-06T04:06:13;5.90;;;1.80;;
21122;SDS011;10719;48.130;11.630;2024-01-06T04:08:39;7.97;;;2.40;;
21122;SDS011;10719;48.130;11.630;2024-01-06T04:11:08;6.03;;;2.25;;
21122;SDS011;10719;48.130;11.630;2024-01-06T04:13:33;6.55;;;2.17;;
21122;SDS011;10719;48.130;11.630;2024-01-06T04:15:59;5.80;;;1.90;;
21122;SDS011;10719;48.130;11.630;2024-01-06T04:18:24;5.57;;;1.75;;
21122;SDS011;10719;48.130;11.630;2024-01-06T04:20:50;4.93;;;1.60;;
21122;SDS011;10719;48.130;11.630;2024-01-06T04:23:15;3.47;;;1.30;;
21122;SDS011;10719;48.130;11.630;2024-01-06T04:25:41;3.45;;;1.17;;
21122;SDS011;10719;48.130;11.630;2024-01-06T04:28:07;4.22;;;1.13;;
21122;SDS011;10719;48.130;11.630;2024-01-06T04:30:32;2.28;;;1.17;;
21122;SDS011;10719;48.130;11.630;2024-01-06T04:32:58;4.97;;;1.60;;
21122;SDS011;10719;48.130;11.630;2024-01-06T04:35:23;2.75;;;1.15;;
21122;SDS011;10719;48.130;11.630;2024-01-06T04:37:50;3.58;;;1.08;;
21122;SDS011;10719;48.130;11.630;2024-01-06T04:40:16;1.35;;;0.75;;
21122;SDS011;10719;48.130;11.630;2024-01-06T04:42:42;1.27;;;0.88;;
21122;SDS011;10719;48.130;11.630;2024-01-06T04:45:07;1.35;;;0.73;;
21122;SDS011;10719;48.130;11.630;2024-01-06T04:47:33;2.15;;;0.98;;
21122;SDS011;10719;48.130;11.630;2024-01-06T04:49:59;1.73;;;0.90;;
21122;SDS011;10719;48.130;11.630;2024-01-06T04:52:24;1.05;;;0.60;;
21122;SDS011;10719;48.130;11.630;2024-01-06T04:54:50;0.85;;;0.57;;
21122;SDS011;10719;48.130;11.630;2024-01-06T04:57:16;1.27;;;0.50;;
21122;SDS011;10719;48.130;11.630;2024-01-06T04:59:41;0.80;;;0.55;;
21122;SDS011;10719;48.130;11.630;2024-01-06T05:02:07;0.32;;;0.32;;
21122;SDS011;10719;48.130;11.630;2024-01-06T05:04:32;0.55;;;0.45;;
21122;SDS011;10719;48.130;11.630;2024-01-06T05:06:58;0.67;;;0.43;;
21122;SDS011;10719;48.130;11.630;2024-01-06T05:09:27;0.28;;;0.28;;
21122;SDS011;10719;48.130;11.630;2024-01-06T05:11:52;3.15;;;0.50;;
21122;SDS011;10719;48.130;11.630;2024-01-06T05:14:18;0.30;;;0.30;;
21122;SDS011;10719;48.130;11.630;2024-01-06T05:16:43;0.20;;;0.20;;
21122;SDS011;10719;48.130;11.630;2024-01-06T05:19:09;0.95;;;0.30;;
21122;SDS011;10719;48.130;11.630;2024-01-06T05:21:35;0.85;;;0.32;;
21122;SDS011;10719;48.130;11.630;2024-01-06T05:24:01;1.23;;;0.30;;
21122;SDS011;10719;48.130;11.630;2024-01-06T05:26:28;0.55;;;0.32;;
21122;SDS011;10719;48.130;11.630;2024-01-06T05:28:53;0.57;;;0.32;;
21122;SDS011;10719;48.130;11.630;2024-01-06T05:31:19;1.65;;;0.30;;
21122;SDS011;10719;48.130;11.630;2024-01-06T05:33:45;1.13;;;0.47;;
21122;SDS011;10719;48.130;11.630;2024-01-06T05:36:10;0.20;;;0.20;;
21122;SDS011;10719;48.130;11.630;2024-01-06T05:38:36;0.20;;;0.20;;
21122;SDS011;10719;48.130;11.630;2024-01-06T05:41:02;0.52;;;0.20;;
21122;SDS011;10719;48.130;11.630;2024-01-06T05:43:27;0.60;;;0.40;;
21122;SDS011;10719;48.130;11.630;2024-01-06T05:45:53;0.45;;;0.30;;
21122;SDS011;10719;48.130;11.630;2024-01-06T05:48:19;0.28;;;0.25;;
21122;SDS011;10719;48.130;11.630;2024-01-06T05:50:44;1.98;;;0.60;;
21122;SDS011;10719;48.130;11.630;2024-01-06T05:53:10;0.90;;;0.40;;
21122;SDS011;10719;48.130;11.630;2024-01-06T05:55:36;0.95;;;0.55;;
21122;SDS011;10719;48.130;11.630;2024-01-06T05:58:02;0.73;;;0.50;;
21122;SDS011;10719;48.130;11.630;2024-01-06T06:00:27;0.68;;;0.40;;
21122;SDS011;10719;48.130;11.630;2024-01-06T06:02:53;0.40;;;0.40;;
21122;SDS011;10719;48.130;11.630;2024-01-06T06:05:19;1.25;;;0.30;;
21122;SDS011;10719;48.130;11.630;2024-01-06T06:07:45;1.35;;;0.52;;
21122;SDS011;10719;48.130;11.630;2024-01-06T06:10:11;1.48;;;0.55;;
21122;SDS011;10719;48.130;11.630;2024-01-06T06:12:37;0.52;;;0.47;;
21122;SDS011;10719;48.130;11.630;2024-01-06T06:15:04;0.30;;;0.30;;
21122;SDS011;10719;48.130;11.630;2024-01-06T06:17:31;1.17;;;0.60;;
21122;SDS011;10719;48.130;11.630;2024-01-06T06:19:58;1.42;;;0.63;;
21122;SDS011;10719;48.130;11.630;2024-01-06T06:22:24;2.17;;;0.70;;
21122;SDS011;10719;48.130;11.630;2024-01-06T06:24:58;2.35;;;1.02;;
21122;SDS011;10719;48.130;11.630;2024-01-06T06:27:25;2.42;;;0.80;;
21122;SDS011;10719;48.130;11.630;2024-01-06T06:29:54;4.82;;;1.35;;
21122;SDS011;10719;48.130;11.630;2024-01-06T06:32:21;5.63;;;1.60;;
21122;SDS011;10719;48.130;11.630;2024-01-06T06:34:46;5.82;;;1.70;;
21122;SDS011;10719;48.130;11.630;2024-01-06T06:37:12;6.13;;;1.80;;
21122;SDS011;10719;48.130;11.630;2024-01-06T06:39:38;3.60;;;1.60;;
21122;SDS011;10719;48.130;11.630;2024-01-06T06:42:03;6.80;;;1.92;;
21122;SDS011;10719;48.130;11.630;2024-01-06T06:44:29;4.13;;;1.70;;
21122;SDS011;10719;48.130;11.630;2024-01-06T06:46:55;3.53;;;1.70;;
21122;SDS011;10719;48.130;11.630;2024-01-06T06:49:21;6.57;;;1.50;;
21122;SDS011;10719;48.130;11.630;2024-01-06T06:51:47;3.15;;;1.30;;
21122;SDS011;10719;48.130;11.630;2024-01-06T06:54:14;7.63;;;1.98;;
21122;SDS011;10719;48.130;11.630;2024-01-06T06:56:40;6.67;;;1.70;;
21122;SDS011;10719;48.130;11.630;2024-01-06T06:59:07;4.13;;;1.60;;
21122;SDS011;10719;48.130;11.630;2024-01-06T07:01:32;2.78;;;1.38;;
21122;SDS011;10719;48.130;11.630;2024-01-06T07:03:59;3.10;;;1.65;;
21122;SDS011;10719;48.130;11.630;2024-01-06T07:06:24;3.13;;;1.73;;
21122;SDS011;10719;48.130;11.630;2024-01-06T07:08:50;5.88;;;2.03;;
21122;SDS011;10719;48.130;11.630;2024-01-06T07:11:15;3.35;;;1.90;;
21122;SDS011;10719;48.130;11.630;2024-01-06T07:13:44;4.70;;;1.88;;
21122;SDS011;10719;48.130;11.630;2024-01-06T07:16:10;7.70;;;2.15;;
21122;SDS011;10719;48.130;11.630;2024-01-06T07:18:36;3.88;;;1.75;;
21122;SDS011;10719;48.130;11.630;2024-01-06T07:21:04;4.10;;;1.75;;
21122;SDS011;10719;48.130;11.630;2024-01-06T07:23:31;5.75;;;2.20;;
21122;SDS011;10719;48.130;11.630;2024-01-06T07:25:57;7.93;;;2.08;;
21122;SDS011;10719;48.130;11.630;2024-01-06T07:28:23;4.45;;;2.30;;
21122;SDS011;10719;48.130;11.630;2024-01-06T07:30:48;4.22;;;2.17;;
21122;SDS011;10719;48.130;11.630;2024-01-06T07:33:14;7.88;;;2.60;;
21122;SDS011;10719;48.130;11.630;2024-01-06T07:35:39;5.80;;;2.15;;
21122;SDS011;10719;48.130;11.630;2024-01-06T07:38:08;6.15;;;2.30;;
21122;SDS011;10719;48.130;11.630;2024-01-06T07:40:35;8.65;;;2.83;;
21122;SDS011;10719;48.130;11.630;2024-01-06T07:43:01;6.65;;;2.40;;
21122;SDS011;10719;48.130;11.630;2024-01-06T07:45:27;6.05;;;2.50;;
21122;SDS011;10719;48.130;11.630;2024-01-06T07:47:52;7.82;;;2.55;;
21122;SDS011;10719;48.130;11.630;2024-01-06T07:50:18;8.60;;;2.58;;
21122;SDS011;10719;48.130;11.630;2024-01-06T07:52:44;4.75;;;1.95;;
21122;SDS011;10719;48.130;11.630;2024-01-06T07:55:09;5.97;;;2.45;;
21122;SDS011;10719;48.130;11.630;2024-01-06T07:57:35;6.68;;;2.35;;
21122;SDS011;10719;48.130;11.630;2024-01-06T08:00:00;5.88;;;2.58;;
21122;SDS011;10719;48.130;11.630;2024-01-06T08:02:26;6.63;;;2.45;;
21122;SDS011;10719;48.130;11.630;2024-01-06T08:04:52;4.78;;;2.05;;
21122;SDS011;10719;48.130;11.630;2024-01-06T08:07:18;6.68;;;2.17;;
21122;SDS011;10719;48.130;11.630;2024-01-06T08:09:44;9.18;;;2.67;;
21122;SDS011;10719;48.130;11.630;2024-01-06T08:12:10;7.63;;;2.10;;
21122;SDS011;10719;48.130;11.630;2024-01-06T08:14:35;6.00;;;2.40;;
21122;SDS011;10719;48.130;11.630;2024-01-06T08:17:01;5.10;;;2.05;;
21122;SDS011;10719;48.130;11.630;2024-01-06T08:19:27;4.97;;;2.22;;
21122;SDS011;10719;48.130;11.630;2024-01-06T08:21:55;7.45;;;2.20;;
21122;SDS011;10719;48.130;11.630;2024-01-06T08:24:20;7.03;;;2.15;;
21122;SDS011;10719;48.130;11.630;2024-01-06T08:26:46;4.43;;;1.67;;
21122;SDS011;10719;48.130;11.630;2024-01-06T08:29:12;4.95;;;1.98;;
21122;SDS011;10719;48.130;11.630;2024-01-06T08:31:39;8.30;;;2.13;;
21122;SDS011;10719;48.130;11.630;2024-01-06T08:34:05;7.20;;;2.08;;
21122;SDS011;10719;48.130;11.630;2024-01-06T08:36:32;6.60;;;1.60;;
21122;SDS011;10719;48.130;11.630;2024-01-06T08:38:59;7.68;;;2.17;;
21122;SDS011;10719;48.130;11.630;2024-01-06T08:41:24;8.82;;;2.10;;
21122;SDS011;10719;48.130;11.630;2024-01-06T08:43:50;7.40;;;2.25;;
21122;SDS011;10719;48.130;11.630;2024-01-06T08:46:15;4.97;;;1.80;;
21122;SDS011;10719;48.130;11.630;2024-01-06T08:48:42;4.38;;;2.13;;
21122;SDS011;10719;48.130;11.630;2024-01-06T08:51:07;4.20;;;1.90;;
21122;SDS011;10719;48.130;11.630;2024-01-06T08:53:33;4.72;;;2.10;;
21122;SDS011;10719;48.130;11.630;2024-01-06T08:55:58;5.32;;;1.90;;
21122;SDS011;10719;48.130;11.630;2024-01-06T08:58:24;7.85;;;2.05;;
21122;SDS011;10719;48.130;11.630;2024-01-06T09:00:50;7.82;;;3.03;;
21122;SDS011;10719;48.130;11.630;2024-01-06T09:03:18;7.40;;;2.90;;
21122;SDS011;10719;48.130;11.630;2024-01-06T09:05:49;9.20;;;2.30;;
21122;SDS011;10719;48.130;11.630;2024-01-06T09:08:16;5.97;;;2.30;;
21122;SDS011;10719;48.130;11.630;2024-01-06T09:10:42;7.22;;;2.78;;
21122;SDS011;10719;48.130;11.630;2024-01-06T09:13:08;4.82;;;1.90;;
21122;SDS011;10719;48.130;11.630;2024-01-06T09:15:33;11.02;;;2.78;;
21122;SDS011;10719;48.130;11.630;2024-01-06T09:17:59;7.97;;;2.08;;
21122;SDS011;10719;48.130;11.630;2024-01-06T09:20:25;7.68;;;1.95;;
21122;SDS011;10719;48.130;11.630;2024-01-06T09:22:52;8.93;;;1.80;;
21122;SDS011;10719;48.130;11.630;2024-01-06T09:25:18;7.57;;;2.08;;
21122;SDS011;10719;48.130;11.630;2024-01-06T09:27:44;10.52;;;1.85;;
21122;SDS011;10719;48.130;11.630;2024-01-06T09:30:09;8.88;;;2.00;;
21122;SDS011;10719;48.130;11.630;2024-01-06T09:32:36;5.15;;;1.73;;
21122;SDS011;10719;48.130;11.630;2024-01-06T09:35:01;3.63;;;1.90;;
21122;SDS011;10719;48.130;11.630;2024-01-06T09:37:27;3.67;;;1.40;;
21122;SDS011;10719;48.130;11.630;2024-01-06T09:39:52;5.25;;;1.70;;
21122;SDS011;10719;48.130;11.630;2024-01-06T09:42:18;2.63;;;1.17;;
21122;SDS011;10719;48.130;11.630;2024-01-06T09:44:44;6.38;;;2.20;;
21122;SDS011;10719;48.130;11.630;2024-01-06T09:47:10;6.03;;;1.75;;
21122;SDS011;10719;48.130;11.630;2024-01-06T09:49:38;6.53;;;2.20;;
21122;SDS011;10719;48.130;11.630;2024-01-06T09:52:08;4.88;;;1.60;;
21122;SDS011;10719;48.130;11.630;2024-01-06T09:54:41;4.32;;;1.65;;
21122;SDS011;10719;48.130;11.630;2024-01-06T09:57:15;7.13;;;2.20;;
21122;SDS011;10719;48.130;11.630;2024-01-06T09:59:41;4.80;;;2.20;;
21122;SDS011;10719;48.130;11.630;2024-01-06T10:02:11;4.80;;;2.05;;
21122;SDS011;10719;48.130;11.630;2024-01-06T10:04:42;6.35;;;2.17;;
21122;SDS011;10719;48.130;11.630;2024-01-06T10:07:09;5.93;;;2.20;;
21122;SDS011;10719;48.130;11.630;2024-01-06T10:09:38;4.47;;;1.80;;
21122;SDS011;10719;48.130;11.630;2024-01-06T10:12:04;3.30;;;1.65;;
21122;SDS011;10719;48.130;11.630;2024-01-06T10:14:30;6.88;;;2.63;;
21122;SDS011;10719;48.130;11.630;2024-01-06T10:16:55;8.45;;;2.15;;
21122;SDS011;10719;48.130;11.630;2024-01-06T10:19:21;8.70;;;2.20;;
21122;SDS011;10719;48.130;11.630;2024-01-06T10:21:49;7.57;;;2.47;;
21122;SDS011;10719;48.130;11.630;2024-01-06T10:24:14;8.60;;;2.67;;
21122;SDS011;10719;48.130;11.630;2024-01-06T10:26:43;7.88;;;2.28;;
21122;SDS011;10719;48.130;11.630;2024-01-06T10:29:10;9.48;;;3.10;;
21122;SDS011;10719;48.130;11.630;2024-01-06T10:31:37;5.70;;;2.28;;
21122;SDS011;10719;48.130;11.630;2024-01-06T10:34:03;9.20;;;3.00;;
21122;SDS011;10719;48.130;11.630;2024-01-06T10:36:30;12.65;;;2.80;;
21122;SDS011;10719;48.130;11.630;2024-01-06T10:38:56;8.65;;;3.00;;
21122;SDS011;10719;48.130;11.630;2024-01-06T10:41:22;8.65;;;3.05;;
21122;SDS011;10719;48.130;11.630;2024-01-06T10:43:49;9.63;;;2.92;;
21122;SDS011;10719;48.130;11.630;2024-01-06T10:46:16;5.20;;;2.28;;
21122;SDS011;10719;48.130;11.630;2024-01-06T10:48:44;7.65;;;2.50;;
21122;SDS011;10719;48.130;11.630;2024-01-06T10:51:11;7.20;;;2.70;;
21122;SDS011;10719;48.130;11.630;2024-01-06T10:53:42;7.68;;;2.80;;
21122;SDS011;10719;48.130;11.630;2024-01-06T10:56:08;7.53;;;2.80;;
21122;SDS011;10719;48.130;11.630;2024-01-06T10:58:38;9.07;;;3.15;;
21122;SDS011;10719;48.130;11.630;2024-01-06T11:01:11;10.48;;;3.50;;
21122;SDS011;10719;48.130;11.630;2024-01-06T11:03:37;8.27;;;2.80;;
21122;SDS011;10719;48.130;11.630;2024-01-06T11:06:06;13.68;;;3.15;;
21122;SDS011;10719;48.130;11.630;2024-01-06T11:08:36;7.60;;;2.95;;
21122;SDS011;10719;48.130;11.630;2024-01-06T11:11:15;9.20;;;3.10;;
21122;SDS011;10719;48.130;11.630;2024-01-06T11:13:43;11.25;;;3.58;;
21122;SDS011;10719;48.130;11.630;2024-01-06T11:16:10;6.50;;;2.60;;
21122;SDS011;10719;48.130;11.630;2024-01-06T11:18:36;10.32;;;3.25;;
21122;SDS011;10719;48.130;11.630;2024-01-06T11:26:45;8.35;;;2.72;;
21122;SDS011;10719;48.130;11.630;2024-01-06T11:29:16;9.90;;;3.33;;
21122;SDS011;10719;48.130;11.630;2024-01-06T11:31:43;10.32;;;2.80;;
21122;SDS011;10719;48.130;11.630;2024-01-06T11:34:26;7.75;;;2.85;;
21122;SDS011;10719;48.130;11.630;2024-01-06T11:36:56;9.07;;;2.85;;
21122;SDS011;10719;48.130;11.630;2024-01-06T11:39:35;10.73;;;3.20;;
21122;SDS011;10719;48.130;11.630;2024-01-06T11:42:06;7.15;;;2.65;;
21122;SDS011;10719;48.130;11.630;2024-01-06T11:44:44;11.82;;;3.20;;
21122;SDS011;10719;48.130;11.630;2024-01-06T11:47:11;9.15;;;3.00;;
21122;SDS011;10719;48.130;11.630;2024-01-06T11:49:37;8.95;;;2.97;;
21122;SDS011;10719;48.130;11.630;2024-01-06T11:52:03;14.27;;;3.45;;
21122;SDS011;10719;48.130;11.630;2024-01-06T11:54:30;8.82;;;3.28;;
21122;SDS011;10719;48.130;11.630;2024-01-06T11:56:56;9.75;;;3.40;;
21122;SDS011;10719;48.130;11.630;2024-01-06T11:59:22;10.68;;;3.53;;
21122;SDS011;10719;48.130;11.630;2024-01-06T12:01:48;7.95;;;3.15;;
21122;SDS011;10719;48.130;11.630;2024-01-06T12:04:14;14.65;;;4.65;;
21122;SDS011;10719;48.130;11.630;2024-01-06T12:06:40;13.25;;;3.80;;
21122;SDS011;10719;48.130;11.630;2024-01-06T12:09:07;8.77;;;3.85;;
21122;SDS011;10719;48.130;11.630;2024-01-06T12:11:36;15.18;;;3.92;;
21122;SDS011;10719;48.130;11.630;2024-01-06T12:14:05;10.98;;;4.18;;
21122;SDS011;10719;48.130;11.630;2024-01-06T12:16:31;16.27;;;4.22;;
21122;SDS011;10719;48.130;11.630;2024-01-06T12:18:58;10.27;;;3.60;;
21122;SDS011;10719;48.130;11.630;2024-01-06T12:21:25;12.55;;;3.92;;
21122;SDS011;10719;48.130;11.630;2024-01-06T12:23:51;9.05;;;4.05;;
21122;SDS011;10719;48.130;11.630;2024-01-06T12:26:17;14.93;;;3.72;;
21122;SDS011;10719;48.130;11.630;2024-01-06T12:28:46;8.35;;;3.30;;
21122;SDS011;10719;48.130;11.630;2024-01-06T12:31:13;7.38;;;3.20;;
21122;SDS011;10719;48.130;11.630;2024-01-06T12:33:39;9.40;;;3.83;;
21122;SDS011;10719;48.130;11.630;2024-01-06T12:36:08;14.38;;;4.38;;
21122;SDS011;10719;48.130;11.630;2024-01-06T12:38:36;9.57;;;3.53;;
21122;SDS011;10719;48.130;11.630;2024-01-06T12:41:03;7.97;;;2.90;;
21122;SDS011;10719;48.130;11.630;2024-01-06T12:43:29;6.75;;;3.00;;
21122;SDS011;10719;48.130;11.630;2024-01-06T12:45:55;7.60;;;2.60;;
21122;SDS011;10719;48.130;11.630;2024-01-06T12:48:22;8.07;;;3.00;;
21122;SDS011;10719;48.130;11.630;2024-01-06T12:50:48;10.23;;;3.17;;
21122;SDS011;10719;48.130;11.630;2024-01-06T12:53:14;7.40;;;2.75;;
21122;SDS011;10719;48.130;11.630;2024-01-06T12:55:43;11.98;;;2.88;;
21122;SDS011;10719;48.130;11.630;2024-01-06T12:58:09;5.30;;;2.30;;
21122;SDS011;10719;48.130;11.630;2024-01-06T13:00:36;7.15;;;2.58;;
21122;SDS011;10719;48.130;11.630;2024-01-06T13:03:01;5.35;;;2.10;;
21122;SDS011;10719;48.130;11.630;2024-01-06T13:05:27;10.40;;;2.88;;
21122;SDS011;10719;48.130;11.630;2024-01-06T13:07:53;6.13;;;2.40;;
21122;SDS011;10719;48.130;11.630;2024-01-06T13:10:18;7.87;;;2.77;;
21122;SDS011;10719;48.130;11.630;2024-01-06T13:12:44;7.43;;;2.90;;
21122;SDS011;10719;48.130;11.630;2024-01-06T13:15:10;11.13;;;3.00;;
21122;SDS011;10719;48.130;11.630;2024-01-06T13:17:38;7.05;;;2.88;;
21122;SDS011;10719;48.130;11.630;2024-01-06T13:20:04;7.07;;;2.90;;
21122;SDS011;10719;48.130;11.630;2024-01-06T13:22:31;11.63;;;3.85;;
21122;SDS011;10719;48.130;11.630;2024-01-06T13:24:57;12.15;;;3.47;;
21122;SDS011;10719;48.130;11.630;2024-01-06T13:27:24;9.50;;;3.50;;
21122;SDS011;10719;48.130;11.630;2024-01-06T13:29:49;7.93;;;3.03;;
21122;SDS011;10719;48.130;11.630;2024-01-06T13:32:16;7.27;;;3.13;;
21122;SDS011;10719;48.130;11.630;2024-01-06T13:34:44;5.63;;;2.65;;
21122;SDS011;10719;48.130;11.630;2024-01-06T13:37:10;10.88;;;3.47;;
21122;SDS011;10719;48.130;11.630;2024-01-06T13:39:35;11.30;;;4.80;;
21122;SDS011;10719;48.130;11.630;2024-01-06T13:42:01;10.68;;;3.47;;
21122;SDS011;10719;48.130;11.630;2024-01-06T13:44:28;12.07;;;3.90;;
21122;SDS011;10719;48.130;11.630;2024-01-06T13:46:54;10.18;;;4.18;;
21122;SDS011;10719;48.130;11.630;2024-01-06T13:49:20;9.00;;;3.67;;
21122;SDS011;10719;48.130;11.630;2024-01-06T13:51:47;8.65;;;3.92;;
21122;SDS011;10719;48.130;11.630;2024-01-06T13:54:13;16.33;;;3.85;;
21122;SDS011;10719;48.130;11.630;2024-01-06T13:56:38;9.70;;;3.38;;
21122;SDS011;10719;48.130;11.630;2024-01-06T13:59:04;17.83;;;4.32;;
21122;SDS011;10719;48.130;11.630;2024-01-06T14:01:30;9.63;;;3.58;;
21122;SDS011;10719;48.130;11.630;2024-01-06T14:03:56;9.05;;;3.55;;
21122;SDS011;10719;48.130;11.630;2024-01-06T14:06:27;8.82;;;3.60;;
21122;SDS011;10719;48.130;11.630;2024-01-06T14:08:59;12.55;;;3.38;;
21122;SDS011;10719;48.130;11.630;2024-01-06T14:11:25;9.27;;;3.30;;
21122;SDS011;10719;48.130;11.630;2024-01-06T14:13:52;12.05;;;3.60;;
21122;SDS011;10719;48.130;11.630;2024-01-06T14:16:18;10.13;;;3.78;;
21122;SDS011;10719;48.130;11.630;2024-01-06T14:18:44;11.07;;;3.90;;
21122;SDS011;10719;48.130;11.630;2024-01-06T14:21:10;9.57;;;3.40;;
21122;SDS011;10719;48.130;11.630;2024-01-06T14:23:36;9.13;;;2.87;;
21122;SDS011;10719;48.130;11.630;2024-01-06T14:26:02;9.60;;;3.35;;
21122;SDS011;10719;48.130;11.630;2024-01-06T14:28:28;11.90;;;3.80;;
21122;SDS011;10719;48.130;11.630;2024-01-06T14:30:55;8.65;;;3.38;;